createdAt,value
2019-05-16T00:00:13.533Z,1.20
2019-05-16T00:01:13.507Z,1.20
2019-05-16T00:02:13.477Z,1.10
2019-05-16T00:03:13.451Z,1.00
2019-05-16T00:04:13.427Z,1.10
2019-05-16T00:05:13.397Z,1.30
2019-05-16T00:06:13.371Z,1.30
2019-05-16T00:07:13.342Z,1.20
2019-05-16T00:08:13.313Z,1.40
2019-05-16T00:09:13.286Z,1.10
2019-05-16T00:10:13.259Z,1.40
2019-05-16T00:11:13.233Z,1.30
2019-05-16T00:12:13.204Z,1.10
2019-05-16T00:13:13.175Z,1.30
2019-05-16T00:14:13.150Z,1.10
2019-05-16T00:15:13.124Z,1.20
2019-05-16T00:16:13.094Z,1.30
2019-05-16T00:17:13.067Z,1.20
2019-05-16T00:18:13.043Z,1.40
2019-05-16T00:19:13.014Z,1.20
2019-05-16T00:20:12.985Z,1.20
2019-05-16T00:21:12.957Z,1.10
2019-05-16T00:22:12.930Z,1.10
2019-05-16T00:23:12.902Z,1.20
2019-05-16T00:24:12.874Z,1.10
2019-05-16T00:25:12.849Z,1.10
2019-05-16T00:26:12.818Z,1.20
2019-05-16T00:27:12.792Z,1.00
2019-05-16T00:28:12.765Z,1.10
2019-05-16T00:29:12.740Z,1.20
2019-05-16T00:30:12.710Z,1.20
2019-05-16T00:31:12.685Z,1.10
2019-05-16T00:32:12.653Z,1.30
2019-05-16T00:33:12.635Z,1.20
2019-05-16T00:34:12.601Z,1.20
2019-05-16T00:35:12.574Z,1.30
2019-05-16T00:36:12.544Z,1.10
2019-05-16T00:37:12.517Z,1.30
2019-05-16T00:38:12.490Z,1.00
2019-05-16T00:39:12.463Z,1.20
2019-05-16T00:40:12.434Z,1.30
2019-05-16T00:41:12.407Z,1.00
2019-05-16T00:42:12.379Z,1.10
2019-05-16T00:43:12.353Z,1.20
2019-05-16T00:44:12.325Z,1.20
2019-05-16T00:45:13.498Z,1.40
2019-05-16T00:46:12.273Z,1.20
2019-05-16T00:47:12.244Z,1.30
2019-05-16T00:48:12.215Z,1.20
2019-05-16T00:49:12.189Z,1.40
2019-05-16T00:50:12.162Z,1.20
2019-05-16T00:51:12.135Z,1.20
2019-05-16T00:52:12.107Z,1.20
2019-05-16T00:53:12.094Z,1.10
2019-05-16T00:54:12.051Z,1.30
2019-05-16T00:55:12.024Z,1.40
2019-05-16T00:56:11.996Z,1.10
2019-05-16T00:57:11.969Z,1.30
2019-05-16T00:58:11.949Z,1.40
2019-05-16T00:59:11.914Z,1.20
2019-05-16T01:00:11.887Z,1.40
2019-05-16T01:01:11.860Z,1.00
2019-05-16T01:02:11.833Z,1.00
2019-05-16T01:03:11.806Z,1.00
2019-05-16T01:04:11.778Z,1.30
2019-05-16T01:05:14.388Z,1.10
2019-05-16T01:06:19.143Z,1.10
2019-05-16T01:07:11.700Z,1.20
2019-05-16T01:08:11.674Z,1.00
2019-05-16T01:09:11.639Z,1.10
2019-05-16T01:10:11.614Z,1.30
2019-05-16T01:11:11.586Z,1.10
2019-05-16T01:12:11.558Z,1.40
2019-05-16T01:13:11.531Z,1.20
2019-05-16T01:14:11.504Z,1.30
2019-05-16T01:15:11.477Z,1.10
2019-05-16T01:16:11.448Z,1.10
2019-05-16T01:17:11.421Z,1.20
2019-05-16T01:18:11.394Z,1.10
2019-05-16T01:19:11.368Z,1.00
2019-05-16T01:20:11.340Z,1.20
2019-05-16T01:21:11.311Z,1.10
2019-05-16T01:22:11.284Z,1.00
2019-05-16T01:23:11.256Z,1.10
2019-05-16T01:24:11.228Z,1.30
2019-05-16T01:25:11.204Z,1.10
2019-05-16T01:26:11.174Z,1.20
2019-05-16T01:27:11.147Z,1.00
2019-05-16T01:28:11.118Z,1.00
2019-05-16T01:29:11.802Z,1.20
2019-05-16T01:30:11.065Z,1.10
2019-05-16T01:31:11.036Z,1.10
2019-05-16T01:32:11.008Z,1.50
2019-05-16T01:33:10.979Z,1.40
2019-05-16T01:34:10.954Z,1.10
2019-05-16T01:35:10.926Z,1.30
2019-05-16T01:36:10.898Z,1.10
2019-05-16T01:37:10.870Z,1.10
2019-05-16T01:38:10.842Z,1.20
2019-05-16T01:39:10.814Z,1.20
2019-05-16T01:40:10.787Z,1.30
2019-05-16T01:41:10.759Z,1.20
2019-05-16T01:42:10.733Z,1.30
2019-05-16T01:43:10.704Z,1.10
2019-05-16T01:44:10.677Z,1.20
2019-05-16T01:45:10.652Z,1.20
2019-05-16T01:46:10.619Z,1.20
2019-05-16T01:47:10.595Z,1.20
2019-05-16T01:48:10.566Z,1.30
2019-05-16T01:49:10.537Z,1.20
2019-05-16T01:50:10.516Z,1.20
2019-05-16T01:51:10.481Z,1.50
2019-05-16T01:52:10.453Z,1.00
2019-05-16T01:53:10.428Z,1.10
2019-05-16T01:54:10.399Z,1.20
2019-05-16T01:55:10.372Z,1.10
2019-05-16T01:56:10.348Z,1.10
2019-05-16T01:57:10.315Z,1.30
2019-05-16T01:58:10.290Z,1.20
2019-05-16T01:59:10.261Z,1.30
2019-05-16T02:00:10.236Z,1.20
2019-05-16T02:01:13.229Z,1.20
2019-05-16T02:02:10.177Z,1.10
2019-05-16T02:03:10.150Z,1.20
2019-05-16T02:04:12.218Z,1.10
2019-05-16T02:05:10.094Z,1.00
2019-05-16T02:06:10.072Z,1.30
2019-05-16T02:07:10.050Z,1.10
2019-05-16T02:08:10.012Z,1.60
2019-05-16T02:09:11.540Z,1.30
2019-05-16T02:10:09.957Z,1.20
2019-05-16T02:11:09.932Z,1.10
2019-05-16T02:12:10.730Z,1.20
2019-05-16T02:13:09.873Z,1.10
2019-05-16T02:14:09.846Z,1.40
2019-05-16T02:15:09.817Z,1.00
2019-05-16T02:16:09.791Z,1.30
2019-05-16T02:17:11.265Z,1.10
2019-05-16T02:18:09.735Z,1.10
2019-05-16T02:19:09.712Z,1.10
2019-05-16T02:20:09.679Z,1.20
2019-05-16T02:21:09.655Z,1.20
2019-05-16T02:22:09.624Z,1.30
2019-05-16T02:23:09.596Z,1.10
2019-05-16T02:24:09.568Z,1.30
2019-05-16T02:25:09.541Z,1.30
2019-05-16T02:26:09.514Z,1.00
2019-05-16T02:27:09.705Z,1.30
2019-05-16T02:28:09.458Z,1.10
2019-05-16T02:29:10.288Z,1.20
2019-05-16T02:30:12.475Z,1.20
2019-05-16T02:31:11.882Z,1.20
2019-05-16T02:32:11.621Z,1.20
2019-05-16T02:33:11.574Z,1.20
2019-05-16T02:34:11.979Z,1.30
2019-05-16T02:35:11.840Z,1.00
2019-05-16T02:36:10.991Z,1.20
2019-05-16T02:37:23.068Z,1.20
2019-05-16T02:38:11.402Z,1.10
2019-05-16T02:39:11.162Z,1.00
2019-05-16T02:40:11.988Z,1.00
2019-05-16T02:41:10.614Z,1.40
2019-05-16T02:42:11.866Z,1.20
2019-05-16T02:43:12.217Z,1.20
2019-05-16T02:44:11.822Z,1.10
2019-05-16T02:45:10.969Z,1.20
2019-05-16T02:46:11.982Z,1.30
2019-05-16T02:47:10.870Z,1.30
2019-05-16T02:48:10.951Z,1.40
2019-05-16T02:49:11.550Z,1.30
2019-05-16T02:50:11.793Z,1.30
2019-05-16T02:51:11.007Z,1.00
2019-05-16T02:52:10.884Z,1.30
2019-05-16T02:53:08.768Z,1.30
2019-05-16T02:54:11.087Z,1.20
2019-05-16T02:55:11.713Z,1.50
2019-05-16T02:56:11.840Z,1.30
2019-05-16T02:57:11.141Z,1.20
2019-05-16T02:58:11.466Z,1.50
2019-05-16T02:59:11.679Z,1.40
2019-05-16T03:00:11.783Z,1.40
2019-05-16T03:01:10.931Z,1.50
2019-05-16T03:02:11.287Z,1.20
2019-05-16T03:03:11.633Z,1.40
2019-05-16T03:04:11.017Z,1.10
2019-05-16T03:05:11.607Z,1.30
2019-05-16T03:06:11.173Z,1.20
2019-05-16T03:07:11.434Z,1.30
2019-05-16T03:08:11.741Z,1.50
2019-05-16T03:09:11.313Z,1.40
2019-05-16T03:10:10.924Z,1.40
2019-05-16T03:11:11.627Z,1.50
2019-05-16T03:12:10.751Z,1.20
2019-05-16T03:13:10.907Z,1.50
2019-05-16T03:14:10.998Z,1.40
2019-05-16T03:15:10.644Z,1.60
2019-05-16T03:16:11.424Z,1.60
2019-05-16T03:17:08.077Z,1.60
2019-05-16T03:18:11.242Z,1.70
2019-05-16T03:19:11.156Z,1.30
2019-05-16T03:20:10.723Z,1.40
2019-05-16T03:21:11.047Z,1.50
2019-05-16T03:22:07.935Z,1.50
2019-05-16T03:23:11.019Z,1.80
2019-05-16T03:24:10.996Z,1.50
2019-05-16T03:25:11.082Z,1.60
2019-05-16T03:26:07.818Z,1.50
2019-05-16T03:27:10.628Z,1.50
2019-05-16T03:28:10.892Z,1.80
2019-05-16T03:29:11.069Z,1.60
2019-05-16T03:30:07.702Z,1.40
2019-05-16T03:31:07.680Z,1.60
2019-05-16T03:32:13.249Z,1.90
2019-05-16T03:33:07.614Z,1.60
2019-05-16T03:34:08.037Z,1.60
2019-05-16T03:35:07.590Z,1.60
2019-05-16T03:36:14.027Z,1.70
2019-05-16T03:37:07.513Z,1.90
2019-05-16T03:38:07.470Z,1.60
2019-05-16T03:39:10.507Z,1.60
2019-05-16T03:40:07.411Z,2.00
2019-05-16T03:41:07.381Z,2.00
2019-05-16T03:42:07.352Z,1.70
2019-05-16T03:43:07.328Z,1.90
2019-05-16T03:44:07.293Z,1.80
2019-05-16T03:45:10.528Z,1.70
2019-05-16T03:46:07.237Z,1.90
2019-05-16T03:47:07.215Z,1.80
2019-05-16T03:48:07.179Z,1.90
2019-05-16T03:49:07.150Z,1.90
2019-05-16T03:50:07.121Z,1.80
2019-05-16T03:51:07.091Z,1.90
2019-05-16T03:52:07.060Z,2.10
2019-05-16T03:53:07.033Z,1.90
2019-05-16T03:54:07.009Z,1.80
2019-05-16T03:55:06.984Z,2.00
2019-05-16T03:56:06.948Z,2.10
2019-05-16T03:57:06.917Z,2.10
2019-05-16T03:58:06.893Z,1.80
2019-05-16T03:59:06.866Z,2.10
2019-05-16T04:00:06.830Z,2.00
2019-05-16T04:01:06.804Z,2.10
2019-05-16T04:02:06.781Z,1.70
2019-05-16T04:03:06.747Z,1.90
2019-05-16T04:04:06.717Z,1.70
2019-05-16T04:05:06.690Z,1.90
2019-05-16T04:06:06.658Z,2.00
2019-05-16T04:07:06.629Z,1.80
2019-05-16T04:08:18.376Z,1.80
2019-05-16T04:09:06.576Z,2.10
2019-05-16T04:10:06.542Z,1.60
2019-05-16T04:11:06.513Z,1.90
2019-05-16T04:12:06.486Z,2.00
2019-05-16T04:13:06.456Z,2.00
2019-05-16T04:14:06.428Z,2.20
2019-05-16T04:15:06.398Z,1.90
2019-05-16T04:16:06.381Z,1.90
2019-05-16T04:17:06.345Z,1.60
2019-05-16T04:18:06.312Z,1.80
2019-05-16T04:19:06.283Z,1.70
2019-05-16T04:20:06.253Z,1.70
2019-05-16T04:21:06.228Z,2.20
2019-05-16T04:22:06.197Z,1.90
2019-05-16T04:23:06.173Z,2.10
2019-05-16T04:24:06.139Z,2.10
2019-05-16T04:25:06.110Z,1.90
2019-05-16T04:26:06.085Z,1.70
2019-05-16T04:27:06.052Z,1.90
2019-05-16T04:28:06.023Z,1.80
2019-05-16T04:29:05.996Z,1.80
2019-05-16T04:30:05.966Z,1.70
2019-05-16T04:31:05.945Z,2.00
2019-05-16T04:32:05.907Z,1.80
2019-05-16T04:33:05.879Z,1.90
2019-05-16T04:34:05.850Z,2.00
2019-05-16T04:35:05.824Z,2.00
2019-05-16T04:36:05.793Z,2.00
2019-05-16T04:37:05.765Z,1.70
2019-05-16T04:38:05.736Z,1.80
2019-05-16T04:39:05.707Z,2.00
2019-05-16T04:40:05.683Z,2.00
2019-05-16T04:41:05.649Z,1.80
2019-05-16T04:42:05.623Z,2.20
2019-05-16T04:43:05.590Z,2.20
2019-05-16T04:44:05.564Z,1.90
2019-05-16T04:45:05.534Z,2.00
2019-05-16T04:46:05.504Z,1.90
2019-05-16T04:47:05.477Z,2.10
2019-05-16T04:48:05.447Z,2.00
2019-05-16T04:49:05.420Z,2.00
2019-05-16T04:50:05.389Z,1.90
2019-05-16T04:51:05.360Z,2.30
2019-05-16T04:52:05.331Z,2.10
2019-05-16T04:53:05.305Z,2.10
2019-05-16T04:54:07.181Z,1.90
2019-05-16T04:55:05.246Z,2.10
2019-05-16T04:56:05.216Z,2.30
2019-05-16T04:57:05.197Z,1.90
2019-05-16T04:58:05.158Z,1.90
2019-05-16T04:59:05.129Z,2.10
2019-05-16T05:00:05.099Z,2.10
2019-05-16T05:01:05.072Z,2.20
2019-05-16T05:02:05.046Z,2.20
2019-05-16T05:03:05.013Z,1.80
2019-05-16T05:04:10.925Z,2.20
2019-05-16T05:05:04.957Z,1.90
2019-05-16T05:06:04.931Z,2.20
2019-05-16T05:07:04.899Z,2.30
2019-05-16T05:08:04.870Z,2.30
2019-05-16T05:09:04.844Z,2.10
2019-05-16T05:10:04.813Z,2.50
2019-05-16T05:11:04.783Z,2.40
2019-05-16T05:12:04.955Z,2.30
2019-05-16T05:13:04.729Z,2.50
2019-05-16T05:14:04.698Z,2.20
2019-05-16T05:15:04.667Z,2.20
2019-05-16T05:16:04.639Z,2.20
2019-05-16T05:17:05.507Z,2.10
2019-05-16T05:18:04.582Z,2.30
2019-05-16T05:19:04.553Z,2.90
2019-05-16T05:20:04.525Z,2.10
2019-05-16T05:21:04.495Z,2.30
2019-05-16T05:22:04.464Z,2.30
2019-05-16T05:23:04.435Z,2.30
2019-05-16T05:24:04.411Z,2.10
2019-05-16T05:25:04.376Z,2.30
2019-05-16T05:26:04.349Z,2.50
2019-05-16T05:27:04.320Z,2.90
2019-05-16T05:28:04.289Z,2.60
2019-05-16T05:29:04.260Z,2.80
2019-05-16T05:30:04.231Z,2.30
2019-05-16T05:31:04.203Z,2.60
2019-05-16T05:32:05.436Z,2.60
2019-05-16T05:33:04.143Z,2.50
2019-05-16T05:34:04.116Z,2.30
2019-05-16T05:35:04.085Z,2.70
2019-05-16T05:36:04.062Z,2.80
2019-05-16T05:37:04.027Z,2.60
2019-05-16T05:38:04.008Z,2.60
2019-05-16T05:39:11.138Z,2.50
2019-05-16T05:40:03.940Z,2.90
2019-05-16T05:41:03.911Z,2.60
2019-05-16T05:42:03.881Z,2.40
2019-05-16T05:43:03.854Z,2.60
2019-05-16T05:44:03.822Z,2.70
2019-05-16T05:45:03.793Z,2.50
2019-05-16T05:46:03.764Z,2.70
2019-05-16T05:47:03.741Z,2.80
2019-05-16T05:48:03.705Z,3.10
2019-05-16T05:49:03.677Z,2.90
2019-05-16T05:50:03.647Z,3.20
2019-05-16T05:51:03.618Z,3.00
2019-05-16T05:52:03.588Z,4.00
2019-05-16T05:53:03.564Z,3.10
2019-05-16T05:54:03.532Z,3.80
2019-05-16T05:55:03.502Z,3.10
2019-05-16T05:56:03.472Z,3.30
2019-05-16T05:57:03.444Z,3.10
2019-05-16T05:58:03.414Z,4.00
2019-05-16T05:59:03.384Z,9.60
2019-05-16T06:00:03.358Z,8.50
2019-05-16T06:01:03.332Z,5.60
2019-05-16T06:02:03.301Z,3.40
2019-05-16T06:03:03.267Z,3.30
2019-05-16T06:04:03.238Z,3.30
2019-05-16T06:05:03.209Z,3.30
2019-05-16T06:06:03.182Z,4.00
2019-05-16T06:07:03.154Z,4.40
2019-05-16T06:08:03.126Z,4.00
2019-05-16T06:09:03.095Z,3.20
2019-05-16T06:10:03.071Z,2.90
2019-05-16T06:11:03.038Z,2.80
2019-05-16T06:12:03.007Z,3.80
2019-05-16T06:13:02.983Z,2.60
2019-05-16T06:14:02.956Z,2.80
2019-05-16T06:15:08.498Z,2.90
2019-05-16T06:16:02.892Z,2.80
2019-05-16T06:17:02.860Z,3.60
2019-05-16T06:18:02.831Z,4.20
2019-05-16T06:19:02.807Z,2.90
2019-05-16T06:20:02.778Z,3.10
2019-05-16T06:21:02.744Z,3.00
2019-05-16T06:22:02.719Z,2.70
2019-05-16T06:23:02.687Z,2.70
2019-05-16T06:24:02.656Z,2.80
2019-05-16T06:25:02.628Z,3.10
2019-05-16T06:26:02.601Z,3.10
2019-05-16T06:27:02.571Z,3.20
2019-05-16T06:28:02.555Z,3.10
2019-05-16T06:29:02.511Z,2.90
2019-05-16T06:30:02.483Z,3.10
2019-05-16T06:31:02.754Z,3.60
2019-05-16T06:32:02.424Z,3.20
2019-05-16T06:33:02.398Z,3.10
2019-05-16T06:34:08.363Z,2.90
2019-05-16T06:35:02.338Z,2.90
2019-05-16T06:36:02.309Z,3.00
2019-05-16T06:37:02.302Z,3.30
2019-05-16T06:38:02.251Z,3.10
2019-05-16T06:39:02.222Z,3.40
2019-05-16T06:40:02.197Z,2.80
2019-05-16T06:41:02.175Z,3.40
2019-05-16T06:42:02.134Z,3.40
2019-05-16T06:43:02.105Z,3.50
2019-05-16T06:44:02.078Z,3.40
2019-05-16T06:45:02.047Z,3.60
2019-05-16T06:46:02.019Z,3.80
2019-05-16T06:47:15.821Z,3.00
2019-05-16T06:48:01.959Z,3.50
2019-05-16T06:49:01.937Z,3.40
2019-05-16T06:50:01.902Z,3.60
2019-05-16T06:51:03.127Z,3.60
2019-05-16T06:52:01.844Z,3.80
2019-05-16T06:53:01.819Z,3.20
2019-05-16T06:54:01.786Z,3.20
2019-05-16T06:55:01.757Z,3.40
2019-05-16T06:56:01.728Z,3.50
2019-05-16T06:57:01.701Z,3.60
2019-05-16T06:58:01.671Z,3.80
2019-05-16T06:59:01.686Z,3.40
2019-05-16T07:00:01.618Z,3.20
2019-05-16T07:01:03.557Z,3.10
2019-05-16T07:02:01.619Z,3.10
2019-05-16T07:03:01.527Z,3.30
2019-05-16T07:04:01.497Z,3.10
2019-05-16T07:05:01.468Z,3.50
2019-05-16T07:06:01.440Z,3.80
2019-05-16T07:07:03.035Z,3.60
2019-05-16T07:08:01.383Z,3.30
2019-05-16T07:09:01.353Z,3.00
2019-05-16T07:10:04.514Z,3.50
2019-05-16T07:11:01.294Z,3.30
2019-05-16T07:12:01.267Z,2.90
2019-05-16T07:13:01.239Z,3.10
2019-05-16T07:14:01.210Z,3.70
2019-05-16T07:15:02.269Z,3.50
2019-05-16T07:16:01.151Z,3.70
2019-05-16T07:17:01.125Z,3.40
2019-05-16T07:18:01.095Z,3.90
2019-05-16T07:19:01.066Z,3.30
2019-05-16T07:20:01.038Z,3.20
2019-05-16T07:21:01.012Z,3.80
2019-05-16T07:22:00.983Z,3.40
2019-05-16T07:23:00.954Z,3.10
2019-05-16T07:24:00.923Z,3.10
2019-05-16T07:25:00.895Z,3.50
2019-05-16T07:26:01.011Z,2.80
2019-05-16T07:27:00.838Z,2.80
2019-05-16T07:28:00.841Z,3.20
2019-05-16T07:29:00.783Z,2.70
2019-05-16T07:30:01.356Z,3.00
2019-05-16T07:31:14.485Z,2.90
2019-05-16T07:32:00.698Z,2.90
2019-05-16T07:33:00.671Z,3.30
2019-05-16T07:34:00.973Z,3.20
2019-05-16T07:35:00.681Z,3.00
2019-05-16T07:36:00.614Z,2.90
2019-05-16T07:37:00.589Z,2.90
2019-05-16T07:38:00.647Z,3.00
2019-05-16T07:39:00.504Z,3.10
2019-05-16T07:40:15.657Z,2.80
2019-05-16T07:41:00.445Z,3.10
2019-05-16T07:42:00.415Z,2.90
2019-05-16T07:43:00.389Z,2.80
2019-05-16T07:44:01.026Z,2.60
2019-05-16T07:45:00.802Z,2.80
2019-05-16T07:46:00.649Z,2.80
2019-05-16T07:47:00.967Z,2.50
2019-05-16T07:48:00.247Z,2.60
2019-05-16T07:49:01.159Z,2.90
2019-05-16T07:50:00.194Z,3.00
2019-05-16T07:51:00.626Z,2.70
2019-05-16T07:52:00.540Z,2.80
2019-05-16T07:53:00.107Z,2.80
2019-05-16T07:54:00.080Z,2.80
2019-05-16T07:55:03.733Z,3.00
2019-05-16T07:56:00.243Z,3.20
2019-05-16T07:57:11.395Z,2.90
2019-05-16T07:57:59.973Z,3.20
2019-05-16T07:59:00.884Z,2.60
2019-05-16T08:00:00.250Z,2.70
2019-05-16T08:01:04.618Z,3.00
2019-05-16T08:02:00.570Z,2.90
2019-05-16T08:03:00.048Z,2.40
2019-05-16T08:04:00.083Z,2.60
2019-05-16T08:05:00.716Z,2.70
2019-05-16T08:06:01.656Z,2.80
2019-05-16T08:07:00.605Z,2.60
2019-05-16T08:08:00.083Z,2.80
2019-05-16T08:09:00.244Z,2.70
2019-05-16T08:09:59.932Z,3.20
2019-05-16T08:11:01.505Z,2.60
2019-05-16T08:12:01.854Z,2.60
2019-05-16T08:13:03.350Z,2.90
2019-05-16T08:14:00.986Z,3.20
2019-05-16T08:15:00.726Z,2.80
2019-05-16T08:16:01.148Z,2.60
2019-05-16T08:17:01.113Z,3.70
2019-05-16T08:18:03.237Z,4.00
2019-05-16T08:19:00.869Z,3.10
2019-05-16T08:20:00.050Z,3.10
2019-05-16T08:21:00.735Z,3.00
2019-05-16T08:22:01.217Z,2.90
2019-05-16T08:23:00.823Z,3.00
2019-05-16T08:24:05.854Z,2.70
2019-05-16T08:25:00.237Z,3.00
2019-05-16T08:26:01.142Z,2.50
2019-05-16T08:27:01.187Z,2.80
2019-05-16T08:28:01.159Z,2.90
2019-05-16T08:29:02.034Z,3.00
2019-05-16T08:30:02.224Z,2.80
2019-05-16T08:31:00.972Z,2.70
2019-05-16T08:32:02.082Z,2.90
2019-05-16T08:33:02.475Z,3.30
2019-05-16T08:34:00.965Z,2.60
2019-05-16T08:35:01.016Z,2.70
2019-05-16T08:36:04.702Z,2.80
2019-05-16T08:37:01.146Z,3.10
2019-05-16T08:38:01.110Z,3.10
2019-05-16T08:39:01.167Z,2.80
2019-05-16T08:40:00.376Z,2.70
2019-05-16T08:43:00.441Z,3.00
2019-05-16T08:44:01.133Z,2.70
2019-05-16T08:45:01.832Z,2.80
2019-05-16T08:46:01.016Z,3.00
2019-05-16T08:47:05.643Z,2.80
2019-05-16T08:48:00.190Z,2.60
2019-05-16T08:49:01.055Z,3.00
2019-05-16T08:50:00.695Z,2.90
2019-05-16T08:51:02.951Z,3.30
2019-05-16T08:52:01.265Z,3.30
2019-05-16T08:53:02.560Z,3.50
2019-05-16T08:54:01.926Z,3.40
2019-05-16T08:55:03.119Z,3.20
2019-05-16T08:56:02.309Z,3.20
2019-05-16T08:57:14.390Z,4.00
2019-05-16T08:58:01.955Z,3.30
2019-05-16T08:58:58.319Z,3.00
2019-05-16T09:00:01.339Z,3.40
2019-05-16T09:01:02.276Z,3.00
2019-05-16T09:02:03.122Z,3.30
2019-05-16T09:03:01.605Z,2.80
2019-05-16T09:04:01.423Z,2.80
2019-05-16T09:05:04.379Z,3.20
2019-05-16T09:06:02.499Z,3.10
2019-05-16T09:07:01.936Z,3.00
2019-05-16T09:08:00.872Z,3.60
2019-05-16T09:09:05.052Z,3.30
2019-05-16T09:10:00.868Z,3.00
2019-05-16T09:10:29.682Z,3.00
2019-05-16T09:10:29.683Z,3.00
2019-05-16T09:11:02.028Z,3.50
2019-05-16T09:11:57.967Z,3.10
2019-05-16T09:12:57.941Z,2.90
2019-05-16T09:13:57.917Z,2.90
2019-05-16T09:14:59.426Z,3.40
2019-05-16T09:15:57.861Z,3.20
2019-05-16T09:16:58.181Z,3.30
2019-05-16T09:17:58.247Z,3.20
2019-05-16T09:18:57.992Z,3.10
2019-05-16T09:19:57.982Z,3.10
2019-05-16T09:20:58.157Z,3.30
2019-05-16T09:21:58.152Z,3.50
2019-05-16T09:22:58.028Z,3.20
2019-05-16T09:23:57.983Z,3.20
2019-05-16T09:24:57.999Z,3.20
2019-05-16T09:25:58.585Z,3.30
2019-05-16T09:26:58.052Z,3.30
2019-05-16T09:27:57.545Z,3.70
2019-05-16T09:28:57.597Z,3.20
2019-05-16T09:29:57.494Z,3.80
2019-05-16T09:30:57.827Z,3.60
2019-05-16T09:32:11.385Z,3.90
2019-05-16T09:32:58.810Z,4.00
2019-05-16T09:33:57.385Z,3.50
2019-05-16T09:34:57.775Z,4.00
2019-05-16T09:35:57.769Z,3.50
2019-05-16T09:37:00.810Z,3.60
2019-05-16T09:37:57.626Z,3.70
2019-05-16T09:38:57.935Z,3.40
2019-05-16T09:39:57.569Z,3.40
2019-05-16T09:40:57.335Z,3.70
2019-05-16T09:41:58.667Z,3.90
2019-05-16T09:42:57.149Z,4.20
2019-05-16T09:43:58.857Z,4.50
2019-05-16T09:44:57.905Z,4.60
2019-05-16T09:46:03.424Z,5.20
2019-05-16T09:46:57.159Z,5.10
2019-05-16T09:47:57.485Z,4.70
2019-05-16T09:49:15.726Z,3.60
2019-05-16T09:49:57.961Z,3.10
2019-05-16T09:50:57.650Z,3.20
2019-05-16T09:51:56.961Z,3.30
2019-05-16T09:52:56.886Z,4.20
2019-05-16T09:53:56.903Z,3.70
2019-05-16T09:54:57.779Z,3.60
2019-05-16T09:55:57.478Z,3.50
2019-05-16T09:56:57.288Z,3.10
2019-05-16T09:57:58.383Z,3.50
2019-05-16T09:58:57.494Z,3.20
2019-05-16T09:59:57.250Z,3.60
2019-05-16T10:00:57.518Z,3.70
2019-05-16T10:01:57.292Z,3.70
2019-05-16T10:02:58.048Z,3.80
2019-05-16T10:03:56.599Z,3.70
2019-05-16T10:04:57.949Z,3.30
2019-05-16T10:05:57.149Z,3.80
2019-05-16T10:06:57.288Z,3.00
2019-05-16T10:07:57.368Z,3.10
2019-05-16T10:08:56.964Z,3.40
2019-05-16T10:09:57.202Z,3.80
2019-05-16T10:10:57.119Z,3.40
2019-05-16T10:12:08.216Z,3.80
2019-05-16T10:12:56.369Z,3.80
2019-05-16T10:13:56.343Z,4.00
2019-05-16T10:14:59.443Z,4.00
2019-05-16T10:15:56.288Z,3.90
2019-05-16T10:16:57.905Z,3.10
2019-05-16T10:17:57.500Z,3.20
2019-05-16T10:18:56.811Z,3.40
2019-05-16T10:19:56.492Z,3.70
2019-05-16T10:20:58.988Z,4.50
2019-05-16T10:22:00.036Z,4.40
2019-05-16T10:22:57.975Z,4.60
2019-05-16T10:23:56.514Z,3.90
2019-05-16T10:24:57.310Z,4.10
2019-05-16T10:25:56.796Z,5.70
2019-05-16T10:26:57.191Z,4.40
2019-05-16T10:27:55.978Z,6.00
2019-05-16T10:28:57.880Z,4.50
2019-05-16T10:30:00.663Z,3.30
2019-05-16T10:30:56.892Z,4.30
2019-05-16T10:31:56.887Z,3.60
2019-05-16T10:32:57.501Z,3.80
2019-05-16T10:33:58.065Z,3.50
2019-05-16T10:34:57.246Z,4.20
2019-05-16T10:35:57.982Z,3.60
2019-05-16T10:36:57.524Z,3.50
2019-05-16T10:37:57.602Z,3.40
2019-05-16T10:38:59.048Z,3.80
2019-05-16T10:39:56.374Z,3.80
2019-05-16T10:40:56.586Z,4.10
2019-05-16T10:41:57.382Z,4.10
2019-05-16T10:42:57.852Z,4.00
2019-05-16T10:43:56.811Z,4.10
2019-05-16T10:44:57.673Z,3.90
2019-05-16T10:45:55.513Z,4.60
2019-05-16T10:46:55.488Z,4.10
2019-05-16T10:47:55.461Z,3.90
2019-05-16T10:48:57.610Z,4.10
2019-05-16T10:49:56.460Z,4.20
2019-05-16T10:50:57.641Z,4.10
2019-05-16T10:51:57.564Z,3.80
2019-05-16T10:53:20.357Z,4.30
2019-05-16T10:54:09.144Z,3.60
2019-05-16T10:55:01.441Z,3.80
2019-05-16T10:55:57.144Z,3.90
2019-05-16T10:56:57.365Z,4.00
2019-05-16T10:57:56.734Z,3.80
2019-05-16T10:59:25.935Z,4.50
2019-05-16T11:00:06.636Z,4.00
2019-05-16T11:01:17.892Z,3.80
2019-05-16T11:01:56.355Z,4.10
2019-05-16T11:02:58.769Z,3.80
2019-05-16T11:03:56.800Z,3.80
2019-05-16T11:05:02.797Z,4.40
2019-05-16T11:06:02.897Z,4.70
2019-05-16T11:06:57.134Z,4.80
2019-05-16T11:07:57.396Z,6.30
2019-05-16T11:08:57.141Z,5.80
2019-05-16T11:10:02.776Z,4.40
2019-05-16T11:10:56.958Z,4.10
2019-05-16T11:11:57.051Z,4.60
2019-05-16T11:12:58.485Z,3.90
2019-05-16T11:13:54.791Z,4.50
2019-05-16T11:14:54.766Z,4.00
2019-05-16T11:15:54.739Z,4.20
2019-05-16T11:16:54.713Z,3.80
2019-05-16T11:17:59.730Z,3.50
2019-05-16T11:18:54.662Z,4.20
2019-05-16T11:19:54.634Z,3.70
2019-05-16T11:20:57.723Z,4.40
2019-05-16T11:21:54.583Z,3.80
2019-05-16T11:22:57.088Z,4.30
2019-05-16T11:23:56.552Z,3.80
2019-05-16T11:24:56.541Z,4.10
2019-05-16T11:25:55.487Z,4.50
2019-05-16T11:26:56.698Z,4.10
2019-05-16T11:27:54.427Z,5.30
2019-05-16T11:28:56.594Z,4.70
2019-05-16T11:29:56.524Z,4.10
2019-05-16T11:30:54.354Z,4.40
2019-05-16T11:31:54.322Z,4.40
2019-05-16T11:32:56.598Z,4.60
2019-05-16T11:33:54.271Z,4.30
2019-05-16T11:34:54.244Z,3.90
2019-05-16T11:35:54.221Z,4.20
2019-05-16T11:36:54.194Z,4.60
2019-05-16T11:37:54.167Z,4.90
2019-05-16T11:38:58.595Z,4.50
2019-05-16T11:39:54.114Z,5.10
2019-05-16T11:40:56.662Z,4.80
2019-05-16T11:41:54.063Z,4.70
2019-05-16T11:43:06.632Z,4.80
2019-05-16T11:43:54.013Z,4.50
2019-05-16T11:44:53.987Z,4.90
2019-05-16T11:45:53.963Z,5.10
2019-05-16T11:46:53.934Z,4.70
2019-05-16T11:47:53.907Z,4.80
2019-05-16T11:48:53.882Z,4.30
2019-05-16T11:49:53.856Z,4.30
2019-05-16T11:50:56.769Z,4.20
2019-05-16T11:51:53.807Z,4.80
2019-05-16T11:52:53.779Z,4.50
2019-05-16T11:53:53.752Z,4.50
2019-05-16T11:54:53.727Z,4.80
2019-05-16T11:55:57.634Z,4.70
2019-05-16T11:56:53.673Z,4.30
2019-05-16T11:57:53.649Z,4.80
2019-05-16T11:58:53.625Z,4.80
2019-05-16T11:59:53.598Z,5.30
2019-05-16T12:00:53.572Z,5.20
2019-05-16T12:01:53.547Z,5.80
2019-05-16T12:02:53.522Z,6.10
2019-05-16T12:03:53.494Z,6.00
2019-05-16T12:04:53.474Z,6.00
2019-05-16T12:05:53.443Z,5.70
2019-05-16T12:06:53.417Z,5.70
2019-05-16T12:07:56.971Z,5.40
2019-05-16T12:08:53.366Z,5.80
2019-05-16T12:09:55.745Z,5.80
2019-05-16T12:10:53.314Z,5.60
2019-05-16T12:11:59.647Z,5.90
2019-05-16T12:12:53.262Z,6.10
2019-05-16T12:13:53.237Z,5.80
2019-05-16T12:14:55.095Z,5.60
2019-05-16T12:15:53.187Z,6.40
2019-05-16T12:16:53.160Z,6.20
2019-05-16T12:18:02.004Z,5.70
2019-05-16T12:18:53.108Z,5.90
2019-05-16T12:19:53.218Z,5.90
2019-05-16T12:20:53.058Z,5.60
2019-05-16T12:21:53.031Z,6.10
2019-05-16T12:22:53.005Z,6.40
2019-05-16T12:23:52.979Z,6.20
2019-05-16T12:24:52.957Z,5.90
2019-05-16T12:25:52.927Z,6.10
2019-05-16T12:26:52.902Z,6.30
2019-05-16T12:27:52.875Z,7.10
2019-05-16T12:28:52.849Z,7.10
2019-05-16T12:29:56.182Z,6.70
2019-05-16T12:30:52.797Z,5.70
2019-05-16T12:31:57.872Z,6.50
2019-05-16T12:32:52.744Z,6.90
2019-05-16T12:33:52.729Z,7.30
2019-05-16T12:34:52.696Z,6.60
2019-05-16T12:35:52.670Z,7.40
2019-05-16T12:36:52.640Z,6.40
2019-05-16T12:37:52.613Z,6.90
2019-05-16T12:38:52.587Z,7.10
2019-05-16T12:39:52.560Z,7.30
2019-05-16T12:40:52.534Z,6.40
2019-05-16T12:41:52.507Z,7.40
2019-05-16T12:42:54.448Z,7.20
2019-05-16T12:43:53.458Z,6.90
2019-05-16T12:44:52.426Z,7.40
2019-05-16T12:45:52.408Z,8.00
2019-05-16T12:46:52.375Z,8.10
2019-05-16T12:47:52.354Z,8.10
2019-05-16T12:48:52.339Z,7.50
2019-05-16T12:49:52.296Z,7.50
2019-05-16T12:50:52.270Z,7.60
2019-05-16T12:51:52.243Z,7.40
2019-05-16T12:52:52.217Z,6.70
2019-05-16T12:53:52.228Z,7.60
2019-05-16T12:54:52.165Z,8.10
2019-05-16T12:55:52.144Z,9.30
2019-05-16T12:56:52.114Z,10.10
2019-05-16T12:57:56.616Z,7.40
2019-05-16T12:58:52.060Z,9.50
2019-05-16T12:59:52.655Z,11.90
2019-05-16T13:00:57.783Z,15.50
2019-05-16T13:01:51.986Z,14.00
2019-05-16T13:02:51.954Z,11.80
2019-05-16T13:03:51.927Z,10.30
2019-05-16T13:04:51.902Z,10.60
2019-05-16T13:05:51.877Z,10.30
2019-05-16T13:06:51.849Z,8.30
2019-05-16T13:07:51.821Z,8.30
2019-05-16T13:08:53.581Z,7.70
2019-05-16T13:09:51.770Z,9.40
2019-05-16T13:10:51.744Z,13.00
2019-05-16T13:11:51.717Z,20.10
2019-05-16T13:12:51.692Z,24.80
2019-05-16T13:14:03.522Z,21.00
2019-05-16T13:14:51.641Z,13.80
2019-05-16T13:15:51.611Z,11.20
2019-05-16T13:16:51.585Z,11.30